• Join FlightAware (Why Join?)
  • Login
  • US Flag GB Flag 
06:25 EDT


 

Airport Tracker/Info


-or-


 

Live Flight TrackerFlight Track Log ✈ AVN51 ✈ 30-Oct-2013 ✈ NZAA / AKL - NVVV / VLI

Flight Track Log - Related Links

Times and Time Zones

All times are in EDT time to prevent confusion due to time zone crossing. See the AVN51 flight status page for this flight to view local times or setup timezone preferences in your user account.

Time Position Orientation Groundspeed Altitude Reporting Facility
EDT Latitude Longitude Course Direction KTS MPH feet Rate Location/Type
20:23 -37.0100 174.7930 253° West 98 113  Level FlightAware
20:24 -37.0160 174.7700 252° West 157 181 200 1,080 Climbing FlightAware
20:24 -37.0220 174.7510 252° West 162 186 1,000 1,500 Climbing FlightAware
20:25 -37.0310 174.7190 251° West 186 214 1,600 1,200 Climbing FlightAware
20:25 -37.0333 174.7167 252° West 181 208 1,200 Descending New Zealand
20:25 -37.0360 174.7010 251° West 199 229 2,000 4,080 Climbing FlightAware
20:26 -37.0470 174.6570 251° West 214 246 3,300 1,740 Climbing FlightAware
20:26 -37.0500 174.6333 251° West 219 252 1,200 Descending New Zealand
20:26 -37.0580 174.6190 250° West 246 283 3,900 8,400 Climbing FlightAware
20:26 -37.0600 174.6050 250° West 246 283 4,200 2,160 Climbing FlightAware
20:27 -37.0333 174.5667 250° West 270 311 2,400 Descending New Zealand
20:27 -37.0350 174.5600 305° West 259 298 5,700 11,640 Climbing FlightAware
20:27 -36.9980 174.5450 342° North 270 311 6,800 1,500 Climbing FlightAware
20:28 -36.9380 174.5230 344° North 323 372 7,600 1,320 Climbing FlightAware ADS-B
20:29 -36.8740 174.4980 343° North 349 402 8,700 1,860 Climbing FlightAware ADS-B
20:29 -36.8300 174.4810 343° North 350 403 9,900 2,280 Climbing FlightAware ADS-B
20:30 -36.7750 174.4600 343° North 360 414 11,200 2,400 Climbing FlightAware ADS-B
20:30 -36.7667 174.4667 343° North 356 410 2,580 Descending New Zealand
20:30 -36.7250 174.4410 343° North 364 419 12,500 10,620 Climbing FlightAware ADS-B
20:31 -36.6667 174.4167 343° North 366 421 3,000 Descending New Zealand
20:31 -36.6320 174.4050 343° North 357 411 15,400 12,060 Climbing FlightAware ADS-B
20:32 -36.5833 174.3833 343° North 352 405 2,520 Descending New Zealand
20:33 -36.5310 174.3660 343° North 363 418 18,100 18,180 Climbing FlightAware ADS-B
20:33 -36.4833 174.3500 343° North 361 415 2,640 Descending New Zealand
20:33 -36.4740 174.3450 343° North 359 413 19,700 32,820 Climbing FlightAware ADS-B
20:34 -36.4180 174.3230 342° North 368 423 20,800 1,680 Climbing FlightAware ADS-B
20:34 -36.3480 174.2970 343° North 379 436 21,900 1,200 Climbing FlightAware ADS-B
20:35 -36.2667 174.2667 343° North 401 461 1,020 Descending New Zealand
20:36 -36.2170 174.2470 343° North 417 480 23,200 21,900 Climbing FlightAware
20:36 -36.1500 174.2167 343° North 419 482 1,500 Descending New Zealand
20:36 -36.1520 174.2230 343° North 422 486 24,100 42,300 Climbing FlightAware
20:37 -36.0940 174.2010 343° North 422 486 24,700 960 Climbing FlightAware
20:37 -36.0333 174.1833 343° North 435 501 900 Descending New Zealand
20:38 -35.9780 174.1570 343° North 451 519 25,600 23,340 Climbing FlightAware
20:38 -35.9070 174.1310 343° North 453 521 26,500 900 Climbing FlightAware
20:39 -35.8000 174.0833 343° North 471 542 600 Descending New Zealand
20:39 -35.7830 174.0840 343° North 474 545 27,100 33,720 Climbing FlightAware
20:40 -35.6880 174.0490 343° North 474 545 28,100 1,500 Climbing FlightAware
20:40 -35.6667 174.0333 343° North 474 545 1,620 Descending New Zealand
20:41 -35.5740 174.0060 343° North 469 540 29,600 19,740 Climbing FlightAware
20:41 -35.5333 173.9833 343° North 468 539 1,680 Descending New Zealand
20:42 -35.4710 173.9680 343° North 453 521 31,000 28,440 Climbing FlightAware
20:42 -35.4000 173.9420 343° North 452 520 31,800 1,200 Climbing FlightAware
20:43 -35.2833 173.9000 343° North 461 531 1,080 Descending New Zealand
20:43 -35.2870 173.9000 343° North 455 524 32,800 44,640 Climbing FlightAware
20:44 -35.1950 173.8660 343° North 457 526 33,500 660 Climbing FlightAware
20:44 -35.1500 173.8500 343° North 465 535 480 Descending New Zealand
20:45 -35.0710 173.8210 343° North 466 536 34,000 30,000 Climbing FlightAware
20:45 -35.0333 173.8000 343° North 467 537  Descending New Zealand
20:45 -35.0190 173.8020 343° North 466 536 34,000 28,320 Climbing FlightAware
20:46 -34.9000 173.7500 343° North 465 535  Descending New Zealand
20:47 -34.8850 173.7520 343° North 457 526 34,000 29,100 Climbing FlightAware
20:47 -34.7833 173.7167 343° North 462 532  Descending New Zealand
20:48 -34.7610 173.7070 343° North 454 522 34,000 37,740 Climbing FlightAware
20:48 -34.6690 173.6740 343° North 453 521 34,000  Level FlightAware
20:48 -34.6500 173.6667 343° North 461 531  Descending New Zealand
20:49 -34.5460 173.6290 343° North 453 521 34,000 21,000 Climbing FlightAware
20:49 -34.5167 173.6167 343° North 460 529  Descending New Zealand
20:50 -34.4540 173.5960 343° North 452 520 34,000 25,140 Climbing FlightAware
20:50 -34.4000 173.5667 343° North 459 528  Descending New Zealand
20:51 -34.3640 173.5630 343° North 451 519 34,000 41,580 Climbing FlightAware
20:51 -34.3020 173.5410 343° North 450 518 34,000  Level FlightAware
20:51 -34.2667 173.5333 343° North 457 526  Descending New Zealand
20:52 -34.2050 173.5060 343° North 455 524 34,000 26,100 Climbing FlightAware
20:53 -34.1500 173.4833 343° North 455 524  Descending New Zealand
20:53 -34.1190 173.4760 344° North 455 524 34,000 56,640 Climbing FlightAware
20:53 -34.0810 173.4620 344° North 454 522 34,000  Level FlightAware
20:54 -34.0333 173.4333 344° North 453 521  Descending New Zealand
20:54 -33.9430 173.4130 344° North 451 519 34,000 24,000 Climbing FlightAware
20:55 -33.9000 173.4000 344° North 450 518  Descending New Zealand
20:55 -33.8610 173.3830 343° North 449 517 34,000 32,340 Climbing FlightAware
20:56 -33.7833 173.3500 343° North 448 516  Descending New Zealand
20:56 -33.7810 173.3540 343° North 440 506 34,000 26,460 Climbing FlightAware
20:57 -33.6333 173.3000 343° North 437 503  Descending New Zealand
20:57 -33.6570 173.3050 343° North 440 506 34,000 51,000 Climbing FlightAware
20:57 -33.6180 173.2900 343° North 440 506 34,000  Level FlightAware
20:58 -33.5333 173.2667 343° North 447 514  Descending New Zealand
20:58 -33.5190 173.2510 343° North 440 506 34,000 23,700 Climbing FlightAware
20:59 -33.4000 173.2167 343° North 437 503  Descending New Zealand
20:59 -33.4400 173.2210 342° North 440 506 34,000 26,460 Climbing FlightAware
21:00 -33.3000 173.1667 342° North 440 506  Descending New Zealand
21:00 -33.3600 173.1890 342° North 440 506 34,000 27,900 Climbing FlightAware
21:01 -33.1667 173.1333 342° North 437 503  Descending New Zealand
21:01 -33.2590 173.1500 342° North 440 506 34,000 67,980 Climbing FlightAware
21:01 -33.2400 173.1430 342° North 440 506 34,000  Level FlightAware
21:02 -33.0667 173.0833 342° North 434 499  Descending New Zealand
21:02 -33.1440 173.1060 342° North 440 506 34,000 30,000 Climbing FlightAware
21:03 -32.9333 173.0500 342° North 437 503  Descending New Zealand
21:03 -32.9333 173.0500 342° North 440 506 127,500 Level New Zealand
21:03 -33.0650 173.0750 342° North 440 506 34,000 30,420 Climbing FlightAware
21:04 -32.9660 173.0370 342° North 440 506 34,000  Level FlightAware
21:05 -32.7000 172.9500 342° North 437 503  Descending New Zealand
21:05 -32.8680 172.9980 342° North 440 506 34,000 37,740 Climbing FlightAware
21:06 -32.8050 172.9740 342° North 440 506 34,000 -60 Level FlightAware
21:07 -32.4667 172.8667 342° North 437 503 -60 Descending New Zealand
21:09 -32.2333 172.7833 343° North 437 503 360 Level New Zealand
21:11 -32.0000 172.7000 343° North 437 503 360 Level New Zealand
21:13 -31.7667 172.6167 343° North 437 503 360 Level New Zealand
21:15 -31.5333 172.5500 346° North 437 503 420 Level New Zealand
21:17 -31.3000 172.4667 343° North 437 503 420 Level New Zealand
21:19 -31.0667 172.3833 343° North 437 503 420 Level New Zealand
21:21 -30.8333 172.3000 343° North 437 503 420 Level New Zealand
21:23 -30.6000 172.2167 343° North 437 503 420 Level New Zealand
21:25 -30.3667 172.1333 343° North 437 503 480 Level New Zealand
21:27 -30.1333 172.0500 343° North 437 503 480 Level New Zealand
21:29 -29.9000 171.9833 346° North 437 503 480 Level New Zealand
21:31 -29.6667 171.9000 343° North 437 503 540 Level New Zealand
21:33 -29.4333 171.8167 343° North 434 499 540 Level New Zealand
21:35 -29.1833 171.7333 344° North 447 514 540 Level New Zealand
21:37 -28.9500 171.6500 343° North 447 514 600 Level New Zealand
21:39 -28.7167 171.5833 346° North 447 514 600 Level New Zealand
21:41 -28.4667 171.5000 344° North 447 514 600 Level New Zealand
21:43 -28.2333 171.4167 343° North 447 514 660 Level New Zealand
21:45 -28.0000 171.3333 342° North 447 514 660 Level New Zealand
21:47 -27.7500 171.2667 347° North 447 514 720 Level New Zealand
21:49 -27.5167 171.1833 342° North 447 514 780 Level New Zealand
21:51 -27.2667 171.1000 343° North 447 514 780 Level New Zealand
21:53 -27.0333 171.0333 346° North 447 514 840 Level New Zealand
21:55 -26.8000 170.9500 342° North 447 514 900 Level New Zealand
21:57 -26.5500 170.8833 347° North 447 514 960 Level New Zealand
21:59 -26.3167 170.8000 342° North 447 514 1,020 Level New Zealand
22:01 -26.0667 170.7167 343° North 447 514 1,080 Level New Zealand
22:03 -25.8404 170.6477 345° North  Level Estimated
22:10 -25.0067 170.3958 345° North  Level Estimated
22:11 -24.8875 170.3600 345° North  Level Estimated
22:12 -24.7684 170.3244 345° North  Level Estimated
22:13 -24.6492 170.2888 345° North  Level Estimated
22:14 -24.5300 170.2533 345° North  Level Estimated
22:15 -24.4108 170.2179 345° North  Level Estimated
22:16 -24.2917 170.1825 345° North  Level Estimated
22:17 -24.1724 170.1472 345° North  Level Estimated
22:18 -24.0532 170.1120 345° North  Level Estimated
22:19 -23.9340 170.0768 345° North  Level Estimated
22:20 -23.8148 170.0417 345° North  Level Estimated
22:21 -23.6956 170.0067 345° North  Level Estimated
22:22 -23.5763 169.9717 345° North  Level Estimated
22:23 -23.4571 169.9368 345° North  Level Estimated
22:24 -23.3379 169.9019 345° North  Level Estimated
22:25 -23.2186 169.8671 345° North  Level Estimated
22:26 -23.0993 169.8324 345° North  Level Estimated
22:27 -22.9801 169.7977 345° North  Level Estimated
22:27 -22.8290 169.6860 345° North 447 514 32,000  Level FlightAware
22:28 -22.8608 169.7631 345° North  Level Estimated
22:28 -22.7330 169.6550 343° North 449 517 32,000  Level FlightAware
22:29 -22.6450 169.6260 343° North 449 517 32,000  Level FlightAware
22:30 -22.6050 169.6130 343° North 449 517 32,000  Level FlightAware
22:31 -22.5030 169.5790 343° North 449 517 32,000  Level FlightAware
22:31 -22.4220 169.5530 343° North 449 517 32,000  Level FlightAware
22:32 -22.3210 169.5190 343° North 449 517 32,000  Level FlightAware
22:33 -22.2400 169.4920 343° North 449 517 32,000  Level FlightAware
22:34 -22.1590 169.4660 343° North 449 517 32,000  Level FlightAware
22:34 -22.1180 169.4520 342° North 449 517 32,000  Level FlightAware
22:35 -22.0140 169.4180 343° North 449 517 32,000  Level FlightAware
22:36 -21.7580 169.3530 347° North 455 524 32,000  Level FlightAware
22:37 -21.6560 169.3220 344° North 454 522 32,000  Level FlightAware
22:38 -21.5860 169.2990 343° North 454 522 32,000  Level FlightAware
22:38 -21.5260 169.2790 343° North 454 522 32,000  Level FlightAware
22:39 -21.4240 169.2450 343° North 454 522 32,000  Level FlightAware
22:40 -21.3420 169.2180 343° North 454 522 32,000  Level FlightAware
22:41 -21.2600 169.1920 344° North 454 522 32,000  Level FlightAware
22:42 -21.1590 169.1590 343° North 454 522 32,000  Level FlightAware
22:43 -21.0960 169.1380 343° North 454 522 32,000  Level FlightAware
22:43 -21.0310 169.1170 343° North 454 522 32,000  Level FlightAware
22:44 -20.9270 169.0830 343° North 454 522 32,000  Level FlightAware
22:45 -20.8250 169.0490 343° North 454 522 32,000  Level FlightAware
22:46 -20.7430 169.0220 343° North 454 522 32,000  Level FlightAware
22:47 -20.6810 169.0020 343° North 454 522 32,000  Level FlightAware
22:50 -20.3312 168.9206 348° North  Level Estimated
22:51 -20.2105 168.8926 348° North  Level Estimated
22:52 -20.0899 168.8647 348° North  Level Estimated
22:53 -19.9692 168.8368 348° North  Level Estimated
22:54 -19.8486 168.8089 348° North  Level Estimated
22:55 -19.7279 168.7811 348° North  Level Estimated
22:56 -19.6072 168.7534 348° North  Level Estimated
22:57 -19.4866 168.7256 348° North  Level Estimated
22:58 -19.3659 168.6980 348° North  Level Estimated
22:59 -19.2452 168.6703 348° North  Level Estimated
23:00 -19.1245 168.6427 348° North  Level Estimated
23:01 -19.0038 168.6152 348° North  Level Estimated
23:02 -18.8831 168.5876 348° North  Level Estimated
23:03 -18.7624 168.5602 348° North  Level Estimated
23:04 -18.6417 168.5327 348° North  Level Estimated
23:05 -18.5210 168.5053 348° North  Level Estimated
23:06 -18.4003 168.4780 348° North  Level Estimated
23:07 -18.2796 168.4506 348° North  Level Estimated
23:08 -18.1589 168.4233 348° North  Level Estimated
23:09 -18.0382 168.3961 348° North  Level Estimated
23:10 -17.9175 168.3689 348° North  Level Estimated
23:11 -17.7967 168.3417 348° North  Level Estimated
23:12 -17.6993 168.3198 348° North  Level Estimated
23:13 -17.6993 168.3198 37° Northeast  Level Estimated
23:14 -17.6993 168.3198 143° Southeast  Level Estimated
23:15 -17.6993 168.3198 37° Northeast  Level Estimated
23:16 -17.6993 168.3198 143° Southeast  Level Estimated
23:17 -17.6993 168.3198 37° Northeast  Level Estimated
23:18 -17.6993 168.3198 143° Southeast  Level Estimated
23:19 -17.6993 168.3198 37° Northeast  Level Estimated
23:20 -17.6993 168.3198 143° Southeast  Level Estimated
23:21 -17.6993 168.3198 37° Northeast  Level Estimated
23:22 -17.6993 168.3198 143° Southeast  Level Estimated